Time;durP1;ratioP1;P1;durP2;ratioP2;P2;SDS_P1;SDS_P2;PMS_P1;PMS_P2;Temp;Humidity;BMP_temperature;BMP_pressure;BME280_temperature;BME280_humidity;BME280_pressure;Samples;Min_cycle;Max_cycle;Signal;HPM_P1;HPM_P2
2022/07/31 00:01:07;;;;;;;14.85;13.95;;;;;;;18.03;76.38;100068.41;4882688;28;97607;-77
2022/07/31 00:03:32;;;;;;;15.35;14.35;;;;;;;18.04;76.91;100078.94;4878012;28;96951;-77
2022/07/31 00:05:58;;;;;;;14.80;13.85;;;;;;;18.02;76.90;100074.69;4894853;28;96910;-76
2022/07/31 00:08:23;;;;;;;15.23;14.15;;;;;;;17.95;76.43;100068.09;4893653;28;97676;-77
2022/07/31 00:10:49;;;;;;;15.40;14.32;;;;;;;17.91;76.98;100069.28;4908254;28;97360;-77
2022/07/31 00:13:15;;;;;;;15.00;14.10;;;;;;;17.90;76.79;100067.59;4892186;28;97071;-76
2022/07/31 00:15:40;;;;;;;14.43;13.52;;;;;;;18.02;76.77;100094.13;4896920;28;98117;-77
2022/07/31 00:18:07;;;;;;;15.45;14.27;;;;;;;18.00;76.78;100084.56;4894119;28;101179;-77
2022/07/31 00:20:33;;;;;;;15.88;14.70;;;;;;;17.73;76.79;100058.91;4875796;28;99734;-77
2022/07/31 00:22:58;;;;;;;15.40;14.27;;;;;;;17.95;77.20;100084.91;4911268;28;97152;-77
2022/07/31 00:25:24;;;;;;;14.57;13.68;;;;;;;18.02;76.71;100082.66;4893313;28;96999;-77
2022/07/31 00:27:50;;;;;;;14.70;13.70;;;;;;;17.91;77.10;100077.22;4876544;28;101002;-77
2022/07/31 00:30:16;;;;;;;15.80;14.60;;;;;;;17.97;77.03;100090.09;4893421;28;97993;-76
2022/07/31 00:32:42;;;;;;;15.38;14.48;;;;;;;17.93;76.96;100088.59;4888176;28;96874;-77
2022/07/31 00:35:09;;;;;;;15.82;14.70;;;;;;;17.96;76.96;100094.56;4897823;28;96992;-77
2022/07/31 00:37:36;;;;;;;14.85;13.95;;;;;;;17.98;76.71;100095.31;4898375;28;101664;-76
2022/07/31 00:40:04;;;;;;;15.15;14.13;;;;;;;17.99;76.90;100086.38;4882092;28;102067;-77
2022/07/31 00:42:29;;;;;;;16.00;14.80;;;;;;;17.98;77.10;100091.81;4896912;28;96873;-77
2022/07/31 00:44:55;;;;;;;15.27;14.07;;;;;;;18.02;76.76;100095.94;4906689;28;97084;-77
2022/07/31 00:47:20;;;;;;;15.38;14.48;;;;;;;17.95;76.87;100084.03;4905846;28;98224;-77
2022/07/31 00:49:46;;;;;;;16.23;14.93;;;;;;;17.95;76.84;100081.38;4901119;28;100959;-77
2022/07/31 00:52:12;;;;;;;16.13;14.95;;;;;;;18.03;76.57;100090.50;4903914;28;97146;-77
2022/07/31 00:54:37;;;;;;;15.65;14.60;;;;;;;17.92;77.11;100079.81;4881484;28;97051;-78
2022/07/31 00:57:03;;;;;;;15.32;14.38;;;;;;;17.96;76.99;100094.56;4895833;28;101419;-77
2022/07/31 00:59:29;;;;;;;15.45;14.27;;;;;;;17.93;76.99;100091.25;4897098;28;101572;-76
2022/07/31 01:01:55;;;;;;;14.15;13.35;;;;;;;17.94;76.59;100090.28;4871382;28;97167;-76
2022/07/31 01:04:21;;;;;;;15.05;14.15;;;;;;;17.75;77.30;100066.78;4898711;28;96925;-77
2022/07/31 01:06:48;;;;;;;15.40;14.50;;;;;;;17.81;77.22;100077.03;4898710;28;101327;-77
2022/07/31 01:09:14;;;;;;;15.30;14.13;;;;;;;17.95;76.82;100081.38;4881477;28;101524;-76
2022/07/31 01:12:04;;;;;;;15.52;14.52;;;;;;;17.91;77.03;100087.84;4914222;28;96778;-78
2022/07/31 01:14:34;;;;;;;14.90;14.00;;;;;;;17.82;77.24;100081.38;4897929;28;96926;-76
2022/07/31 01:17:01;;;;;;;14.73;13.82;;;;;;;17.85;77.06;100092.63;4900535;28;97561;-76
2022/07/31 01:19:29;;;;;;;15.23;14.23;;;;;;;17.84;77.18;100092.75;4875531;28;101658;-77
2022/07/31 01:22:36;;;;;;;14.80;13.80;;;;;;;17.83;76.88;100091.03;4912814;28;97078;-76
2022/07/31 01:25:08;;;;;;;15.00;13.93;;;;;;;17.78;77.33;100090.50;4897280;28;96914;-77
2022/07/31 01:28:01;;;;;;;14.93;13.93;;;;;;;17.81;77.09;100091.13;4897443;28;101609;-77
2022/07/31 01:30:34;;;;;;;15.45;14.45;;;;;;;17.84;77.04;100077.66;4896450;28;101104;-76
2022/07/31 01:33:09;;;;;;;15.60;14.60;;;;;;;17.80;77.35;100068.22;4896941;28;96823;-76
2022/07/31 01:35:41;;;;;;;15.88;14.55;;;;;;;17.83;77.37;100080.41;4896693;28;97152;-76
2022/07/31 01:38:18;;;;;;;15.57;14.30;;;;;;;17.85;76.72;100078.50;4892999;28;101472;-76
2022/07/31 01:40:45;;;;;;;14.80;13.70;;;;;;;17.81;76.63;100083.19;4877250;28;101283;-77
2022/07/31 01:43:17;;;;;;;14.52;13.63;;;;;;;17.84;76.96;100084.78;4894299;28;97265;-76
2022/07/31 01:45:44;;;;;;;4.20;1.67;;;;;;;17.87;77.02;100082.75;4896954;28;97366;-77
2022/07/31 01:48:14;;;;;;;4.60;1.88;;;;;;;17.72;77.01;100065.19;4878321;28;97987;-78
2022/07/31 01:50:45;;;;;;;3.30;1.67;;;;;;;17.80;77.16;100076.19;4896851;28;101190;-76
2022/07/31 01:53:15;;;;;;;3.83;1.70;;;;;;;17.71;76.89;100058.16;4878328;28;97719;-77
2022/07/31 01:55:41;;;;;;;4.18;2.50;;;;;;;17.80;77.28;100084.13;4892602;28;97434;-77
2022/07/31 01:58:08;;;;;;;5.47;1.95;;;;;;;17.75;76.98;100059.66;4891100;28;101244;-77
2022/07/31 02:00:33;;;;;;;3.65;1.70;;;;;;;17.77;77.06;100079.00;4886600;28;101393;-76
2022/07/31 02:02:59;;;;;;;5.47;1.92;;;;;;;17.62;77.36;100056.13;4884409;28;99788;-77
2022/07/31 02:05:26;;;;;;;3.63;1.88;;;;;;;17.78;77.27;100080.72;4895530;28;96862;-76
2022/07/31 02:07:53;;;;;;;4.68;1.73;;;;;;;17.74;77.29;100081.84;4876571;28;101226;-77
2022/07/31 02:10:22;;;;;;;4.63;2.03;;;;;;;17.70;77.32;100080.34;4882028;28;101494;-77
2022/07/31 02:12:48;;;;;;;2.70;2.10;;;;;;;17.73;77.50;100084.63;4892897;28;96837;-77
2022/07/31 02:15:15;;;;;;;2.25;1.92;;;;;;;17.70;77.74;100075.06;4884161;28;96873;-77
2022/07/31 02:17:43;;;;;;;4.88;2.60;;;;;;;17.71;77.42;100079.41;4890246;28;101988;-77
2022/07/31 02:20:30;;;;;;;2.75;1.92;;;;;;;17.74;77.37;100075.69;4907322;28;97550;-76
2022/07/31 02:22:57;;;;;;;16.90;15.27;;;;;;;17.58;77.72;100054.66;4877588;28;98114;-77
2022/07/31 02:25:23;;;;;;;4.28;2.45;;;;;;;17.57;77.48;100055.59;4912596;28;97338;-77
2022/07/31 02:27:49;;;;;;;4.93;2.92;;;;;;;17.53;77.87;100062.06;4892337;28;101786;-77
2022/07/31 02:30:15;;;;;;;5.38;2.30;;;;;;;17.68;77.45;100071.63;4899797;28;98425;-76
2022/07/31 02:32:44;;;;;;;5.28;3.30;;;;;;;17.64;77.97;100086.94;4893491;28;97397;-77
2022/07/31 02:35:12;;;;;;;21.58;18.40;;;;;;;17.65;77.81;100085.97;4893496;28;98086;-76
2022/07/31 02:37:38;;;;;;;5.75;5.13;;;;;;;17.46;77.92;100045.72;4887503;28;101063;-76
2022/07/31 02:40:04;;;;;;;14.55;12.55;;;;;;;17.66;77.73;100081.53;4878378;28;101829;-77
2022/07/31 02:42:31;;;;;;;10.55;9.57;;;;;;;17.69;77.67;100089.28;4895132;28;98249;-77
2022/07/31 02:44:56;;;;;;;28.70;26.55;;;;;;;17.72;77.29;100088.22;4880348;28;96895;-77
2022/07/31 02:47:24;;;;;;;11.80;10.90;;;;;;;17.65;77.67;100085.97;4912582;28;98463;-76
2022/07/31 02:49:50;;;;;;;19.65;18.20;;;;;;;17.68;78.18;100092.03;4898247;28;101341;-77
2022/07/31 02:52:16;;;;;;;15.73;14.60;;;;;;;17.60;77.81;100074.81;4912930;28;97275;-76
2022/07/31 02:54:43;;;;;;;22.98;21.17;;;;;;;17.70;77.28;100084.81;4912707;28;97219;-77
2022/07/31 02:57:08;;;;;;;17.20;15.80;;;;;;;17.72;77.54;100086.44;4906783;28;101007;-77
2022/07/31 02:59:38;;;;;;;17.58;16.38;;;;;;;17.76;77.43;100087.06;4910600;28;101444;-77
2022/07/31 03:02:05;;;;;;;26.05;23.95;;;;;;;17.67;77.51;100071.75;4893767;28;98241;-76
2022/07/31 03:04:32;;;;;;;21.38;19.77;;;;;;;17.69;77.67;100070.72;4880775;28;97007;-77
2022/07/31 03:06:59;;;;;;;13.13;12.15;;;;;;;17.70;77.72;100077.69;4892380;28;100166;-77
2022/07/31 03:09:26;;;;;;;21.13;19.38;;;;;;;17.76;77.73;100090.56;4905247;28;97430;-77
2022/07/31 03:12:06;;;;;;;13.35;12.25;;;;;;;17.73;77.50;100085.47;4884120;28;96915;-77
2022/07/31 03:14:33;;;;;;;17.20;15.98;;;;;;;17.72;77.48;100090.88;4891900;28;96918;-76
2022/07/31 03:16:59;;;;;;;14.93;13.80;;;;;;;17.75;77.58;100082.72;4896787;28;101814;-77
2022/07/31 03:19:25;;;;;;;16.92;15.73;;;;;;;17.68;77.50;100069.00;4896201;28;101271;-76
2022/07/31 03:21:51;;;;;;;17.17;15.80;;;;;;;17.69;77.51;100080.47;4880453;28;96830;-77
2022/07/31 03:24:17;;;;;;;13.57;12.63;;;;;;;17.69;77.59;100083.97;4912370;28;97314;-77
2022/07/31 03:26:42;;;;;;;9.77;8.77;;;;;;;17.76;77.14;100081.75;4884836;28;101714;-77
2022/07/31 03:29:08;;;;;;;16.00;14.75;;;;;;;17.70;77.32;100076.84;4895841;28;98555;-76
2022/07/31 03:31:34;;;;;;;17.83;16.52;;;;;;;17.72;77.36;100080.28;4896850;28;96787;-77
2022/07/31 03:34:00;;;;;;;19.17;17.75;;;;;;;17.62;77.21;100056.97;4895960;28;97001;-77
2022/07/31 03:36:26;;;;;;;13.52;12.43;;;;;;;17.60;77.63;100064.22;4899025;28;101562;-76
2022/07/31 03:38:52;;;;;;;16.42;15.23;;;;;;;17.73;77.36;100079.31;4895316;28;98404;-78
2022/07/31 03:41:25;;;;;;;13.77;12.40;;;;;;;17.77;77.09;100083.44;4896959;28;97185;-77
2022/07/31 03:43:51;;;;;;;17.08;15.98;;;;;;;17.63;77.58;100074.63;4879206;28;97608;-77
2022/07/31 03:46:20;;;;;;;18.58;17.15;;;;;;;17.68;77.43;100069.00;4891801;28;100817;-77
2022/07/31 03:48:46;;;;;;;17.25;15.75;;;;;;;17.71;77.47;100086.50;4880232;28;100866;-77
2022/07/31 03:51:12;;;;;;;15.43;13.40;;;;;;;17.69;77.66;100083.13;4898905;28;96848;-76
2022/07/31 03:53:38;;;;;;;28.20;25.48;;;;;;;17.70;77.60;100076.84;4883630;28;98254;-77
2022/07/31 03:56:09;;;;;;;9.93;4.45;;;;;;;17.64;77.39;100059.53;4899206;28;99815;-77
2022/07/31 03:58:34;;;;;;;7.25;5.05;;;;;;;17.68;77.47;100082.25;4896032;28;98379;-77
2022/07/31 04:01:00;;;;;;;10.45;8.95;;;;;;;17.62;77.85;100083.50;4898606;28;97127;-77
2022/07/31 04:03:29;;;;;;;6.25;4.22;;;;;;;17.63;77.91;100073.78;4899663;28;97102;-77
2022/07/31 04:06:18;;;;;;;8.63;4.70;;;;;;;17.68;78.11;100066.34;4897748;28;99018;-78
2022/07/31 04:08:43;;;;;;;21.35;19.35;;;;;;;17.77;77.39;100068.38;4882458;28;101172;-77
2022/07/31 04:11:09;;;;;;;11.05;10.15;;;;;;;17.63;77.28;100048.09;4915291;28;96773;-78
2022/07/31 04:13:35;;;;;;;14.93;13.93;;;;;;;17.62;77.08;100043.72;4888685;28;97241;-77
2022/07/31 04:16:01;;;;;;;17.25;15.57;;;;;;;17.76;77.41;100065.81;4906838;28;101578;-77
2022/07/31 04:18:27;;;;;;;15.27;13.90;;;;;;;17.77;77.40;100056.91;4876459;28;101116;-77
2022/07/31 04:20:52;;;;;;;14.45;13.38;;;;;;;17.70;77.53;100072.41;4883514;28;98097;-79
2022/07/31 04:23:18;;;;;;;17.05;15.65;;;;;;;17.72;77.63;100069.66;4903133;28;96873;-77
2022/07/31 04:26:02;;;;;;;17.05;15.75;;;;;;;17.75;77.09;100072.94;4912291;28;97187;-77
2022/07/31 04:28:40;;;;;;;16.13;14.75;;;;;;;17.72;77.31;100073.16;4896671;28;97614;-77
2022/07/31 04:31:06;;;;;;;16.10;14.75;;;;;;;17.72;77.25;100067.00;4900344;28;97180;-78
2022/07/31 04:33:35;;;;;;;15.65;14.40;;;;;;;17.69;77.22;100067.22;4878930;28;97059;-77
2022/07/31 04:36:00;;;;;;;14.82;13.48;;;;;;;17.78;77.00;100067.47;4900521;28;101002;-77
2022/07/31 04:38:26;;;;;;;15.10;13.82;;;;;;;17.71;77.02;100049.34;4914674;28;97891;-77
2022/07/31 04:40:51;;;;;;;10.60;9.60;;;;;;;17.75;77.06;100061.47;4882426;28;97573;-77
2022/07/31 04:43:18;;;;;;;10.60;9.55;;;;;;;17.78;77.01;100066.63;4902442;28;96908;-77
2022/07/31 04:45:43;;;;;;;15.30;13.80;;;;;;;17.53;77.01;100031.06;4882209;28;99534;-77
2022/07/31 04:48:10;;;;;;;16.67;15.25;;;;;;;17.76;77.24;100060.50;4913361;28;101420;-77
2022/07/31 04:50:35;;;;;;;16.13;14.77;;;;;;;17.85;76.88;100065.22;4898128;28;96777;-77
2022/07/31 04:53:01;;;;;;;13.23;9.65;;;;;;;17.84;76.93;100063.53;4891734;28;97393;-77
2022/07/31 04:55:32;;;;;;;12.68;10.70;;;;;;;17.77;77.50;100064.84;4880677;28;101831;-77
2022/07/31 04:57:57;;;;;;;12.25;11.18;;;;;;;17.85;76.76;100065.22;4914477;28;97863;-77
2022/07/31 05:00:24;;;;;;;10.23;9.43;;;;;;;17.67;76.54;100024.81;4898384;28;97153;-77
2022/07/31 05:02:50;;;;;;;12.13;11.05;;;;;;;17.86;76.99;100056.31;4881970;28;97163;-77
2022/07/31 05:05:17;;;;;;;12.57;11.45;;;;;;;17.86;76.63;100043.91;4897302;28;97330;-77
2022/07/31 05:07:43;;;;;;;15.80;14.40;;;;;;;17.82;76.96;100046.84;4907874;28;101229;-77
2022/07/31 05:13:02;;;;;;;17.13;15.68;;;;;;;17.83;77.05;100068.00;4900637;28;96789;-77
2022/07/31 05:15:30;;;;;;;10.43;8.68;;;;;;;17.83;76.97;100061.81;4905422;28;99233;-77
2022/07/31 05:17:55;;;;;;;9.85;7.95;;;;;;;17.84;76.80;100063.53;4893895;28;98372;-77
2022/07/31 05:20:39;;;;;;;22.40;17.10;;;;;;;17.79;76.90;100058.53;4909422;28;96797;-77
2022/07/31 05:23:34;;;;;;;16.73;15.13;;;;;;;17.86;76.60;100046.56;4881321;28;97470;-77
2022/07/31 05:26:13;;;;;;;12.70;11.57;;;;;;;17.90;76.55;100049.84;4910722;28;101457;-77
2022/07/31 05:28:41;;;;;;;15.45;14.20;;;;;;;17.94;76.39;100055.78;4879255;28;100488;-77
2022/07/31 05:31:07;;;;;;;12.75;11.65;;;;;;;17.89;76.62;100056.13;4892061;28;97501;-77
2022/07/31 05:33:33;;;;;;;13.32;11.85;;;;;;;17.96;76.02;100057.38;4886206;28;97738;-77
2022/07/31 05:36:01;;;;;;;10.35;9.40;;;;;;;17.94;76.49;100067.25;4879117;28;101613;-78
2022/07/31 05:38:27;;;;;;;9.75;8.85;;;;;;;17.90;76.26;100043.69;4897667;28;102346;-77
2022/07/31 05:41:11;;;;;;;13.50;9.80;;;;;;;17.94;76.21;100050.47;4897844;28;97317;-77
2022/07/31 05:43:58;;;;;;;13.60;12.43;;;;;;;18.01;76.08;100057.91;4887449;28;97160;-78
2022/07/31 05:46:28;;;;;;;10.30;4.67;;;;;;;17.95;75.88;100046.84;4898866;28;101753;-77
2022/07/31 05:48:53;;;;;;;8.75;7.95;;;;;;;18.05;75.76;100064.72;4879096;28;101415;-77
2022/07/31 05:51:19;;;;;;;14.57;13.40;;;;;;;18.12;75.53;100056.31;4880933;28;96823;-77
2022/07/31 05:53:44;;;;;;;20.58;18.75;;;;;;;18.14;75.16;100062.38;4881381;28;97116;-77
2022/07/31 05:56:28;;;;;;;6.65;5.97;;;;;;;18.02;75.37;100043.66;4910417;28;97804;-78
2022/07/31 05:58:57;;;;;;;11.05;10.05;;;;;;;18.19;75.13;100062.91;4905933;28;101945;-78
2022/07/31 06:01:22;;;;;;;19.65;17.63;;;;;;;18.16;75.13;100058.66;4896765;28;97481;-77
2022/07/31 06:03:48;;;;;;;12.70;10.80;;;;;;;18.27;75.14;100065.88;4898652;28;97299;-77
2022/07/31 06:06:18;;;;;;;18.10;16.67;;;;;;;18.22;74.68;100065.34;4911879;28;102017;-77
2022/07/31 06:08:44;;;;;;;23.52;21.60;;;;;;;18.25;74.60;100065.97;4891872;28;101513;-77
2022/07/31 06:11:10;;;;;;;15.93;14.30;;;;;;;18.33;74.85;100066.28;4911202;28;97143;-78
2022/07/31 06:13:36;;;;;;;9.73;5.40;;;;;;;18.22;74.55;100039.63;4898958;28;97000;-78
2022/07/31 06:16:13;;;;;;;10.88;9.57;;;;;;;18.37;74.24;100071.41;4882852;28;100360;-78
2022/07/31 06:18:40;;;;;;;16.77;15.10;;;;;;;18.24;74.11;100045.69;4906500;28;100946;-77
2022/07/31 06:21:06;;;;;;;12.23;9.68;;;;;;;18.29;74.45;100078.06;4892688;28;97398;-77
2022/07/31 06:23:31;;;;;;;15.32;13.90;;;;;;;18.22;74.23;100039.63;4893778;28;97191;-77
2022/07/31 06:26:23;;;;;;;13.88;12.65;;;;;;;18.33;74.09;100052.16;4888089;28;99061;-77
2022/07/31 06:28:48;;;;;;;15.90;14.50;;;;;;;18.46;73.91;100076.91;4884786;28;101164;-77
2022/07/31 06:31:18;;;;;;;14.13;12.73;;;;;;;18.49;73.97;100067.88;4877226;28;97379;-78
2022/07/31 06:33:44;;;;;;;16.77;15.18;;;;;;;18.44;74.10;100070.88;4886730;28;96914;-77
2022/07/31 06:36:09;;;;;;;14.80;13.60;;;;;;;18.42;74.07;100075.44;4884865;28;100890;-77
2022/07/31 06:38:40;;;;;;;19.08;17.50;;;;;;;18.54;73.76;100076.38;4895224;28;101736;-78
2022/07/31 06:41:43;;;;;;;18.13;16.73;;;;;;;18.39;73.75;100054.38;4913237;28;97316;-78
2022/07/31 06:44:27;;;;;;;17.83;16.08;;;;;;;18.46;73.69;100074.25;4905861;28;96811;-78
2022/07/31 06:47:12;;;;;;;17.35;16.15;;;;;;;18.45;73.55;100061.94;4895682;28;97165;-78
2022/07/31 06:49:53;;;;;;;15.50;14.15;;;;;;;18.64;73.43;100073.91;4885283;28;99994;-77
2022/07/31 06:52:19;;;;;;;17.00;15.60;;;;;;;18.73;72.96;100067.91;4896631;28;96979;-78
2022/07/31 06:54:44;;;;;;;18.52;16.95;;;;;;;18.89;72.45;100081.00;4897186;28;96959;-77
2022/07/31 06:57:11;;;;;;;16.90;15.68;;;;;;;18.95;72.09;100072.56;4912766;28;101166;-78
2022/07/31 06:59:37;;;;;;;19.08;17.25;;;;;;;18.89;72.14;100054.41;4879054;28;101377;-78
2022/07/31 07:02:02;;;;;;;19.35;17.60;;;;;;;18.96;71.90;100059.16;4895039;28;97915;-77
2022/07/31 07:04:28;;;;;;;16.58;15.30;;;;;;;19.06;72.07;100075.31;4881426;28;96941;-78
2022/07/31 07:06:54;;;;;;;16.67;15.23;;;;;;;19.09;71.97;100068.91;4912919;28;101736;-78
2022/07/31 07:09:19;;;;;;;17.55;16.00;;;;;;;19.20;71.50;100069.81;4886686;28;100723;-77
2022/07/31 07:11:46;;;;;;;16.73;15.18;;;;;;;19.28;71.73;100068.38;4889726;28;97646;-78
2022/07/31 07:14:15;;;;;;;17.33;15.98;;;;;;;19.25;71.48;100058.81;4906867;28;96993;-76
2022/07/31 07:16:40;;;;;;;16.35;14.85;;;;;;;19.35;71.25;100061.66;4878862;28;100656;-76
2022/07/31 07:19:06;;;;;;;16.65;15.27;;;;;;;19.42;71.35;100065.53;4881360;28;101572;-78
2022/07/31 07:21:31;;;;;;;16.10;14.65;;;;;;;19.51;70.35;100037.38;4897788;28;96852;-79
2022/07/31 07:23:57;;;;;;;16.38;15.05;;;;;;;19.77;70.08;100070.91;4896097;28;97674;-78
2022/07/31 07:26:28;;;;;;;14.60;13.27;;;;;;;19.90;69.69;100077.00;4881619;28;101279;-76
2022/07/31 07:28:54;;;;;;;11.20;10.23;;;;;;;20.01;69.05;100061.97;4898352;28;101013;-79
2022/07/31 07:31:20;;;;;;;9.05;8.23;;;;;;;20.10;69.11;100071.91;4913443;28;97303;-75
2022/07/31 07:33:46;;;;;;;19.27;17.50;;;;;;;20.12;69.24;100062.84;4914741;28;97195;-76
2022/07/31 07:36:20;;;;;;;14.55;13.07;;;;;;;20.19;69.00;100071.22;4881818;28;101769;-75
2022/07/31 07:38:45;;;;;;;15.80;14.40;;;;;;;20.22;68.53;100065.66;4899365;28;99772;-76
2022/07/31 07:41:12;;;;;;;11.38;10.48;;;;;;;20.31;68.56;100064.09;4897333;28;96840;-78
2022/07/31 07:43:38;;;;;;;16.70;14.88;;;;;;;20.38;67.87;100067.13;4913524;28;97706;-78
2022/07/31 07:46:03;;;;;;;13.63;12.57;;;;;;;20.40;67.59;100065.19;4887994;28;101929;-78
2022/07/31 07:48:29;;;;;;;11.63;10.63;;;;;;;20.29;67.93;100050.88;4904197;28;100818;-76
2022/07/31 07:51:14;;;;;;;14.48;13.27;;;;;;;20.38;67.73;100062.63;4899452;28;97373;-75
2022/07/31 07:54:00;;;;;;;11.80;10.85;;;;;;;20.40;67.84;100070.50;4895384;28;97022;-77
2022/07/31 07:56:44;;;;;;;12.40;11.50;;;;;;;20.47;67.86;100061.88;4913654;28;97173;-78
2022/07/31 07:59:21;;;;;;;10.82;9.73;;;;;;;20.35;67.60;100047.72;4910881;28;97860;-78
2022/07/31 08:01:47;;;;;;;10.35;9.55;;;;;;;20.56;67.02;100065.66;4914170;28;96877;-75
2022/07/31 08:04:18;;;;;;;10.35;9.05;;;;;;;20.47;67.17;100037.06;4882318;28;97269;-75
2022/07/31 08:06:44;;;;;;;9.98;8.10;;;;;;;20.65;66.63;100056.09;4881282;28;100801;-77
2022/07/31 08:09:09;;;;;;;9.85;8.40;;;;;;;20.62;66.87;100056.34;4912676;28;101525;-76
2022/07/31 08:12:07;;;;;;;10.45;9.38;;;;;;;20.51;66.73;100062.53;4880500;28;96952;-76
2022/07/31 08:14:59;;;;;;;8.30;7.60;;;;;;;20.53;66.83;100061.44;4887691;28;98445;-79
2022/07/31 08:18:03;;;;;;;10.13;9.13;;;;;;;20.48;67.44;100060.09;4897003;28;98957;-77
2022/07/31 08:20:28;;;;;;;9.88;8.75;;;;;;;20.38;67.83;100069.78;4911269;28;98044;-76
2022/07/31 08:22:54;;;;;;;7.85;7.00;;;;;;;20.37;68.15;100055.59;4894065;28;97906;-77
2022/07/31 08:25:20;;;;;;;21.30;19.77;;;;;;;20.42;67.78;100065.88;4896768;28;97971;-76
2022/07/31 08:27:47;;;;;;;22.58;20.63;;;;;;;20.42;67.89;100065.88;4911784;28;101725;-76
2022/07/31 08:30:14;;;;;;;21.05;19.38;;;;;;;20.39;68.00;100075.00;4897299;28;100292;-76
2022/07/31 08:32:40;;;;;;;25.63;23.13;;;;;;;20.34;67.99;100053.19;4897165;28;96869;-76
2022/07/31 08:35:19;;;;;;;33.83;28.02;;;;;;;20.46;67.87;100073.53;4909440;28;97407;-77
2022/07/31 08:37:45;;;;;;;51.55;42.20;;;;;;;20.47;67.77;100074.38;4872926;28;100946;-76
2022/07/31 08:40:11;;;;;;;8.75;7.75;;;;;;;20.47;67.79;100077.03;4879884;28;101041;-77
2022/07/31 08:42:38;;;;;;;14.07;12.88;;;;;;;20.51;67.97;100078.50;4912867;28;96979;-76
2022/07/31 08:45:07;;;;;;;13.68;12.48;;;;;;;20.54;68.01;100070.31;4881625;28;97171;-77
2022/07/31 08:47:37;;;;;;;13.55;12.43;;;;;;;20.47;67.44;100059.22;4896699;28;101991;-78
2022/07/31 08:50:12;;;;;;;15.75;14.48;;;;;;;20.65;67.40;100054.28;4897103;28;101336;-77
2022/07/31 08:52:39;;;;;;;14.75;13.55;;;;;;;20.79;67.01;100034.50;4879962;28;97251;-77
2022/07/31 08:55:22;;;;;;;15.73;14.43;;;;;;;21.34;65.79;100064.66;4898332;28;97409;-77
2022/07/31 08:57:48;;;;;;;16.35;14.98;;;;;;;21.35;65.58;100069.03;4880709;28;101752;-77
2022/07/31 09:00:18;;;;;;;16.65;14.98;;;;;;;21.66;64.67;100067.31;4911999;28;98681;-77
2022/07/31 09:02:44;;;;;;;14.35;13.23;;;;;;;22.01;63.21;100060.81;4881429;28;96820;-77
2022/07/31 09:05:30;;;;;;;14.18;13.27;;;;;;;21.82;63.66;100061.53;4897589;28;97107;-77
2022/07/31 09:07:55;;;;;;;16.17;14.63;;;;;;;22.16;62.90;100045.25;4893372;28;101383;-77
2022/07/31 09:10:26;;;;;;;14.45;13.43;;;;;;;22.33;62.69;100044.66;4897106;28;101176;-77
2022/07/31 09:12:53;;;;;;;15.67;14.33;;;;;;;22.85;61.36;100051.75;4894290;28;97258;-77
2022/07/31 09:15:27;;;;;;;14.75;13.60;;;;;;;23.08;59.71;100053.22;4898842;28;96887;-75
2022/07/31 09:17:53;;;;;;;14.55;13.60;;;;;;;23.20;59.00;100046.75;4896122;28;101523;-77
2022/07/31 09:20:21;;;;;;;14.15;13.15;;;;;;;23.32;58.43;100023.34;4907326;28;101044;-77
2022/07/31 09:22:47;;;;;;;14.45;12.98;;;;;;;23.36;58.06;100024.78;4897401;28;97282;-77
2022/07/31 09:25:17;;;;;;;14.20;13.30;;;;;;;23.38;58.04;100014.75;4876071;28;97108;-78
2022/07/31 09:27:43;;;;;;;13.95;12.70;;;;;;;23.58;58.39;100034.34;4894658;28;101634;-77
2022/07/31 09:30:09;;;;;;;16.45;13.50;;;;;;;23.75;57.85;100045.34;4912564;28;97447;-77
2022/07/31 09:32:53;;;;;;;14.38;13.20;;;;;;;23.95;56.99;100031.75;4910314;28;98131;-77
2022/07/31 09:35:29;;;;;;;14.70;13.60;;;;;;;24.34;56.34;100034.31;4878819;28;98054;-77
2022/07/31 09:37:54;;;;;;;14.23;13.05;;;;;;;24.51;54.34;100007.72;4909635;28;101170;-78
2022/07/31 09:40:42;;;;;;;13.73;12.65;;;;;;;24.88;54.38;100010.31;4911106;28;98927;-78
2022/07/31 09:43:28;;;;;;;13.90;12.55;;;;;;;25.29;53.28;100014.25;4912790;28;97032;-77
2022/07/31 09:45:58;;;;;;;14.27;13.05;;;;;;;25.80;51.99;100016.31;4881223;28;96938;-77
2022/07/31 09:48:24;;;;;;;13.90;12.80;;;;;;;26.15;51.08;100021.63;4895360;28;101213;-77
2022/07/31 09:51:01;;;;;;;14.32;12.90;;;;;;;26.42;50.15;100020.59;4895917;28;101490;-77
2022/07/31 09:53:46;;;;;;;13.70;12.43;;;;;;;26.82;48.75;100028.97;4894180;28;97419;-77
2022/07/31 09:56:32;;;;;;;13.13;12.10;;;;;;;27.07;48.68;100008.34;4911365;28;96895;-77
2022/07/31 09:58:59;;;;;;;13.68;12.70;;;;;;;27.37;47.86;100006.84;4892740;28;101162;-78
2022/07/31 10:01:24;;;;;;;13.80;12.57;;;;;;;27.57;47.11;100017.31;4873607;28;101032;-78
2022/07/31 10:03:52;;;;;;;13.32;12.20;;;;;;;27.68;46.42;100020.50;4895809;28;96824;-78
2022/07/31 10:06:19;;;;;;;16.90;12.60;;;;;;;27.89;46.86;100006.50;4911805;28;96810;-79
2022/07/31 10:08:45;;;;;;;12.88;11.98;;;;;;;28.04;46.08;100020.13;4911320;28;100610;-78
2022/07/31 10:11:26;;;;;;;12.25;11.45;;;;;;;27.95;45.82;99996.88;4908678;28;97790;-78
2022/07/31 10:14:13;;;;;;;13.70;12.30;;;;;;;28.06;45.83;100017.25;4897687;28;96935;-77
2022/07/31 10:16:40;;;;;;;12.23;11.43;;;;;;;28.08;45.80;100013.38;4895782;28;97244;-78
2022/07/31 10:19:31;;;;;;;13.02;11.70;;;;;;;27.98;44.64;100024.38;4897655;28;97414;-78
2022/07/31 10:22:17;;;;;;;12.50;11.23;;;;;;;27.85;45.17;100015.13;4878539;28;101312;-78
2022/07/31 10:24:46;;;;;;;12.82;11.88;;;;;;;27.69;44.70;100014.09;4869860;28;96971;-78
2022/07/31 10:27:14;;;;;;;12.38;11.40;;;;;;;27.36;45.47;100004.34;4883270;28;97088;-77
2022/07/31 10:29:41;;;;;;;12.40;11.50;;;;;;;27.08;46.38;100008.19;4895132;28;101160;-78
2022/07/31 10:32:08;;;;;;;12.00;11.10;;;;;;;26.94;45.40;100006.13;4895433;28;101852;-78
2022/07/31 10:34:38;;;;;;;13.03;12.00;;;;;;;26.53;46.70;99995.25;4894817;28;97233;-77
2022/07/31 10:37:37;;;;;;;12.27;11.32;;;;;;;26.44;47.04;100020.41;4895732;28;97406;-78
2022/07/31 10:40:42;;;;;;;13.02;11.45;;;;;;;26.29;47.45;100019.34;4872356;28;97630;-78
2022/07/31 10:43:24;;;;;;;11.13;10.48;;;;;;;26.25;47.55;100008.06;4877594;28;101297;-77
2022/07/31 10:46:10;;;;;;;11.70;10.85;;;;;;;25.94;47.70;100002.34;4910946;28;97506;-77
2022/07/31 10:48:52;;;;;;;11.43;10.73;;;;;;;25.90;47.29;99993.75;4888475;28;96838;-78
2022/07/31 10:51:48;;;;;;;12.10;10.95;;;;;;;25.65;47.32;99987.34;4901692;28;97437;-77
2022/07/31 10:54:46;;;;;;;12.75;11.48;;;;;;;25.60;46.46;100007.63;4883254;28;97788;-78
2022/07/31 10:57:50;;;;;;;12.65;11.55;;;;;;;25.49;46.22;99992.59;4822147;29;98179;-77
2022/07/31 11:00:26;;;;;;;13.18;11.90;;;;;;;25.27;46.33;99978.66;4818256;29;97090;-77
2022/07/31 11:03:20;;;;;;;11.90;11.20;;;;;;;25.46;45.47;99998.28;4878176;28;99462;-77
2022/07/31 11:06:14;;;;;;;;;;;;;;;25.48;46.20;99989.09;4897432;28;101444;-77
2022/07/31 11:09:03;;;;;;;12.18;11.38;;;;;;;25.50;46.75;99987.06;4909192;28;97112;-76
2022/07/31 11:11:53;;;;;;;11.57;10.57;;;;;;;25.64;46.96;99999.09;4897065;28;97071;-76
2022/07/31 11:14:43;;;;;;;;;;;;;;;25.59;46.11;99995.19;4891992;28;102112;-76
2022/07/31 11:17:35;;;;;;;11.65;10.75;;;;;;;25.56;45.97;99976.69;4890996;28;97814;-76
2022/07/31 11:20:21;;;;;;;11.68;10.82;;;;;;;25.62;46.13;99987.66;4895860;28;96846;-76
2022/07/31 11:23:08;;;;;;;12.18;11.10;;;;;;;25.54;44.98;99987.63;4894983;28;97301;-76
2022/07/31 11:25:35;;;;;;;11.30;10.60;;;;;;;25.55;45.41;99983.09;4890810;28;99839;-76
2022/07/31 11:28:15;;;;;;;11.48;10.70;;;;;;;25.55;45.47;99991.97;4889938;28;101026;-76
2022/07/31 11:31:04;;;;;;;11.50;10.73;;;;;;;25.44;44.53;99982.31;4906868;28;97048;-77